< < Back
Terminal Aerodrome Forecast


Current Version              Previous Versions:   1  2  3  4  5  6  7  8  9  

Terminal Aerodrome Forecast

062
FTUS42 KILM 310600 CCA
TAFILM
TAF COR
KILM 310600Z 3106/3124 03007KT P6SM SCT040 BKN100
     FM311400 01011KT P6SM BKN040
     FM311900 35008KT P6SM SCT040=



Latest METAR

046
SAUS70 KWBC 312200 RRA
MTRILM
METAR KILM 312153Z 35006KT 10SM CLR 17/07 A2978 RMK AO2 SLP083
T01670067


USA.gov is the U.S. government's official web portal to all federal, state and local government web resources and services.